createdAt,value
2018-09-06T00:01:32.146Z,22.20
2018-09-06T00:03:59.618Z,20.50
2018-09-06T00:06:27.030Z,22.20
2018-09-06T00:08:54.460Z,22.20
2018-09-06T00:11:21.865Z,22.20
2018-09-06T00:13:49.269Z,22.20
2018-09-06T00:16:16.926Z,22.20
2018-09-06T00:18:44.481Z,22.10
2018-09-06T00:21:11.924Z,22.10
2018-09-06T00:23:39.305Z,22.10
2018-09-06T00:26:06.709Z,22.10
2018-09-06T00:28:34.124Z,22.00
2018-09-06T00:31:01.568Z,22.10
2018-09-06T00:33:28.973Z,22.00
2018-09-06T00:35:56.376Z,22.00
2018-09-06T00:38:23.789Z,21.80
2018-09-06T00:40:51.261Z,22.00
2018-09-06T00:43:19.767Z,22.00
2018-09-06T00:45:47.183Z,22.00
2018-09-06T00:48:14.611Z,22.00
2018-09-06T00:50:42.109Z,21.90
2018-09-06T00:53:09.531Z,21.90
2018-09-06T00:55:37.016Z,21.90
2018-09-06T00:58:04.442Z,21.90
2018-09-06T01:00:31.850Z,21.80
2018-09-06T01:02:59.307Z,21.80
2018-09-06T01:05:27.850Z,21.80
2018-09-06T01:07:55.288Z,18.40
2018-09-06T01:10:22.769Z,21.80
2018-09-06T01:12:50.193Z,21.70
2018-09-06T01:15:17.653Z,21.70
2018-09-06T01:17:45.086Z,21.70
2018-09-06T01:20:12.541Z,21.70
2018-09-06T01:22:39.971Z,21.70
2018-09-06T01:25:07.483Z,21.60
2018-09-06T01:27:34.903Z,21.60
2018-09-06T01:30:02.370Z,21.60
2018-09-06T01:32:29.793Z,21.60
2018-09-06T01:34:57.189Z,21.60
2018-09-06T01:37:24.683Z,21.50
2018-09-06T01:39:52.102Z,21.50
2018-09-06T01:42:19.517Z,21.50
2018-09-06T01:44:46.934Z,21.40
2018-09-06T01:47:14.421Z,21.40
2018-09-06T01:49:41.843Z,21.40
2018-09-06T01:52:09.231Z,21.20
2018-09-06T01:54:36.703Z,21.30
2018-09-06T01:57:04.109Z,21.30
2018-09-06T01:59:35.963Z,21.30
2018-09-06T02:02:03.501Z,21.20
2018-09-06T02:04:30.874Z,21.20
2018-09-06T02:06:58.323Z,21.10
2018-09-06T02:09:25.725Z,21.10
2018-09-06T02:11:53.157Z,21.40
2018-09-06T02:14:20.959Z,21.10
2018-09-06T02:16:48.423Z,21.00
2018-09-06T02:19:15.863Z,21.00
2018-09-06T02:21:43.339Z,21.00
2018-09-06T02:24:10.788Z,21.00
2018-09-06T02:26:38.227Z,20.90
2018-09-06T02:29:05.659Z,20.90
2018-09-06T02:31:33.169Z,20.90
2018-09-06T02:34:00.569Z,20.90
2018-09-06T02:36:27.979Z,20.90
2018-09-06T02:38:55.422Z,20.90
2018-09-06T02:41:22.867Z,20.90
2018-09-06T02:43:50.271Z,20.80
2018-09-06T02:46:17.704Z,20.80
2018-09-06T02:48:45.141Z,20.80
2018-09-06T02:51:15.668Z,20.80
2018-09-06T02:53:43.352Z,20.80
2018-09-06T02:56:11.648Z,20.80
2018-09-06T02:58:39.288Z,20.70
2018-09-06T03:01:06.748Z,20.70
2018-09-06T03:03:34.186Z,20.70
2018-09-06T03:06:01.661Z,20.70
2018-09-06T03:08:29.176Z,20.60
2018-09-06T03:11:06.466Z,20.60
2018-09-06T03:13:33.966Z,20.60
2018-09-06T03:16:01.532Z,20.60
2018-09-06T03:18:29.318Z,20.60
2018-09-06T03:20:56.745Z,20.60
2018-09-06T03:23:24.156Z,20.60
2018-09-06T03:25:51.584Z,20.50
2018-09-06T03:28:19.062Z,20.50
2018-09-06T03:30:46.497Z,20.50
2018-09-06T03:33:13.982Z,20.50
2018-09-06T03:35:41.406Z,20.50
2018-09-06T03:38:08.830Z,20.50
2018-09-06T03:40:36.243Z,20.50
2018-09-06T03:43:03.664Z,20.40
2018-09-06T03:45:31.080Z,20.40
2018-09-06T03:47:58.493Z,20.40
2018-09-06T03:50:25.894Z,20.40
2018-09-06T03:52:53.290Z,20.40
2018-09-06T03:55:20.786Z,20.30
2018-09-06T03:57:48.530Z,20.30
2018-09-06T04:00:16.862Z,20.40
2018-09-06T04:02:44.262Z,20.30
2018-09-06T04:05:11.718Z,20.30
2018-09-06T04:07:39.676Z,20.30
2018-09-06T04:10:07.128Z,20.30
2018-09-06T04:12:34.570Z,20.20
2018-09-06T04:15:02.038Z,20.20
2018-09-06T04:17:29.482Z,20.20
2018-09-06T04:19:56.900Z,20.20
2018-09-06T04:22:24.344Z,20.20
2018-09-06T04:24:51.789Z,20.20
2018-09-06T04:27:19.232Z,20.20
2018-09-06T04:29:46.711Z,20.10
2018-09-06T04:32:14.152Z,20.10
2018-09-06T04:34:41.552Z,20.10
2018-09-06T04:37:08.990Z,20.80
2018-09-06T04:39:36.419Z,20.10
2018-09-06T04:42:03.868Z,20.00
2018-09-06T04:44:31.326Z,20.00
2018-09-06T04:46:58.724Z,20.00
2018-09-06T04:49:26.133Z,20.00
2018-09-06T04:51:53.536Z,20.00
2018-09-06T04:54:20.940Z,20.00
2018-09-06T04:56:48.370Z,20.00
2018-09-06T04:59:15.852Z,20.00
2018-09-06T05:01:43.361Z,20.00
2018-09-06T05:04:10.874Z,20.00
2018-09-06T05:06:38.299Z,20.00
2018-09-06T05:09:07.777Z,19.90
2018-09-06T05:11:35.310Z,19.90
2018-09-06T05:14:02.814Z,19.90
2018-09-06T05:16:30.231Z,19.90
2018-09-06T05:18:57.773Z,19.90
2018-09-06T05:21:25.224Z,19.90
2018-09-06T05:23:52.621Z,19.90
2018-09-06T05:26:20.051Z,19.90
2018-09-06T05:28:47.505Z,19.90
2018-09-06T05:31:14.938Z,19.90
2018-09-06T05:33:42.387Z,20.00
2018-09-06T05:36:09.836Z,20.00
2018-09-06T05:38:37.341Z,20.00
2018-09-06T05:41:05.183Z,20.00
2018-09-06T05:43:32.621Z,20.00
2018-09-06T05:46:00.063Z,19.00
2018-09-06T05:48:27.467Z,20.00
2018-09-06T05:50:54.899Z,20.10
2018-09-06T05:53:22.423Z,20.10
2018-09-06T05:55:49.985Z,20.10
2018-09-06T05:58:17.453Z,20.10
2018-09-06T06:00:47.359Z,20.10
2018-09-06T06:03:14.865Z,20.10
2018-09-06T06:05:42.326Z,20.20
2018-09-06T06:08:21.186Z,20.20
2018-09-06T06:10:48.682Z,20.20
2018-09-06T06:13:16.143Z,20.00
2018-09-06T06:15:43.560Z,20.30
2018-09-06T06:18:11.017Z,20.30
2018-09-06T06:20:38.551Z,20.30
2018-09-06T06:23:06.102Z,20.30
2018-09-06T06:25:33.545Z,20.30
2018-09-06T06:28:00.925Z,20.30
2018-09-06T06:30:28.335Z,20.40
2018-09-06T06:32:55.761Z,20.40
2018-09-06T06:35:23.495Z,20.40
2018-09-06T06:37:50.843Z,20.40
2018-09-06T06:40:18.308Z,20.40
2018-09-06T06:42:45.722Z,20.50
2018-09-06T06:45:13.147Z,20.50
2018-09-06T06:47:40.578Z,20.60
2018-09-06T06:50:08.120Z,20.60
2018-09-06T06:52:35.608Z,20.60
2018-09-06T06:55:03.063Z,20.70
2018-09-06T06:57:30.475Z,20.80
2018-09-06T06:59:57.876Z,20.80
2018-09-06T07:02:25.282Z,20.80
2018-09-06T07:04:53.279Z,20.90
2018-09-06T07:07:20.698Z,21.00
2018-09-06T07:09:48.081Z,21.00
2018-09-06T07:12:15.504Z,21.10
2018-09-06T07:14:43.000Z,21.20
2018-09-06T07:17:10.469Z,21.20
2018-09-06T07:19:37.871Z,21.30
2018-09-06T07:22:05.284Z,21.40
2018-09-06T07:24:32.735Z,21.50
2018-09-06T07:27:00.146Z,21.50
2018-09-06T07:29:27.604Z,21.60
2018-09-06T07:31:55.012Z,21.70
2018-09-06T07:34:22.404Z,21.80
2018-09-06T07:36:49.877Z,21.90
2018-09-06T07:39:17.314Z,22.10
2018-09-06T07:41:44.739Z,20.20
2018-09-06T07:44:12.211Z,22.30
2018-09-06T07:46:39.689Z,22.40
2018-09-06T07:49:07.082Z,22.50
2018-09-06T07:51:34.463Z,22.60
2018-09-06T07:54:01.897Z,22.70
2018-09-06T07:56:29.303Z,22.90
2018-09-06T07:58:56.746Z,23.00
2018-09-06T08:01:24.125Z,23.10
2018-09-06T08:03:51.636Z,23.20
2018-09-06T08:06:19.062Z,23.30
2018-09-06T08:08:46.492Z,23.50
2018-09-06T08:11:13.905Z,23.60
2018-09-06T08:13:41.320Z,23.70
2018-09-06T08:16:08.768Z,23.70
2018-09-06T08:18:36.168Z,23.90
2018-09-06T08:21:03.552Z,24.00
2018-09-06T08:23:30.972Z,24.10
2018-09-06T08:25:58.395Z,24.20
2018-09-06T08:28:25.770Z,24.30
2018-09-06T08:30:53.266Z,24.40
2018-09-06T08:33:20.673Z,24.40
2018-09-06T08:35:48.081Z,24.50
2018-09-06T08:38:15.488Z,24.60
2018-09-06T08:40:42.894Z,24.70
2018-09-06T08:43:10.342Z,24.80
2018-09-06T08:45:37.797Z,25.00
2018-09-06T08:48:05.259Z,25.10
2018-09-06T08:50:32.668Z,25.30
2018-09-06T08:53:00.281Z,25.40
2018-09-06T08:55:27.707Z,25.50
2018-09-06T08:57:55.310Z,25.70
2018-09-06T09:00:22.718Z,25.80
2018-09-06T09:02:50.267Z,26.00
2018-09-06T09:05:17.676Z,26.20
2018-09-06T09:07:45.836Z,26.40
2018-09-06T09:10:13.259Z,26.50
2018-09-06T09:12:40.688Z,26.60
2018-09-06T09:15:08.175Z,27.00
2018-09-06T09:17:35.676Z,27.20
2018-09-06T09:20:03.183Z,27.40
2018-09-06T09:22:30.743Z,27.60
2018-09-06T09:24:58.228Z,27.90
2018-09-06T09:27:25.728Z,28.10
2018-09-06T09:29:53.182Z,28.30
2018-09-06T09:32:20.606Z,28.60
2018-09-06T09:34:48.045Z,28.90
2018-09-06T09:37:15.541Z,29.20
2018-09-06T09:39:42.936Z,29.50
2018-09-06T09:42:10.402Z,29.90
2018-09-06T09:44:38.146Z,30.30
2018-09-06T09:49:32.611Z,31.20
2018-09-06T09:52:00.033Z,31.60
2018-09-06T09:54:27.449Z,32.00
2018-09-06T09:56:54.936Z,32.40
2018-09-06T09:59:22.359Z,32.60
2018-09-06T10:01:55.469Z,32.80
2018-09-06T10:04:28.744Z,33.00
2018-09-06T10:07:01.774Z,33.20
2018-09-06T10:09:29.225Z,33.50
2018-09-06T10:11:56.719Z,33.80
2018-09-06T10:14:24.165Z,34.10
2018-09-06T10:16:51.578Z,34.40
2018-09-06T10:19:19.018Z,34.70
2018-09-06T10:21:46.468Z,35.00
2018-09-06T10:24:13.898Z,35.30
2018-09-06T10:26:41.382Z,35.50
2018-09-06T10:29:08.924Z,35.90
2018-09-06T10:31:36.440Z,36.00
2018-09-06T10:34:03.962Z,36.20
2018-09-06T10:36:31.889Z,36.30
2018-09-06T10:38:59.317Z,36.40
2018-09-06T10:41:26.800Z,36.40
2018-09-06T10:43:54.586Z,36.40
2018-09-06T10:46:22.021Z,36.40
2018-09-06T10:48:49.516Z,36.50
2018-09-06T10:51:16.976Z,36.80
2018-09-06T10:53:44.438Z,37.00
2018-09-06T10:56:12.419Z,37.40
2018-09-06T10:58:39.850Z,37.70
2018-09-06T11:01:13.026Z,37.90
2018-09-06T11:03:40.500Z,38.00
2018-09-06T11:06:08.220Z,38.10
2018-09-06T11:08:35.758Z,38.20
2018-09-06T11:11:03.223Z,38.10
2018-09-06T11:13:30.692Z,38.10
2018-09-06T11:15:58.217Z,37.90
2018-09-06T11:18:25.634Z,37.70
2018-09-06T11:20:53.123Z,37.50
2018-09-06T11:23:20.550Z,37.20
2018-09-06T11:25:47.983Z,37.00
2018-09-06T11:28:15.415Z,36.80
2018-09-06T11:30:42.873Z,36.60
2018-09-06T11:33:10.335Z,36.50
2018-09-06T11:35:37.761Z,36.20
2018-09-06T11:38:05.242Z,36.20
2018-09-06T11:40:32.719Z,36.20
2018-09-06T11:43:00.129Z,36.00
2018-09-06T11:45:27.569Z,36.00
2018-09-06T11:47:55.247Z,36.00
2018-09-06T11:50:22.708Z,35.90
2018-09-06T11:52:50.227Z,35.90
2018-09-06T11:55:17.603Z,35.90
2018-09-06T11:57:45.027Z,35.90
2018-09-06T12:00:12.822Z,35.90
2018-09-06T12:02:40.253Z,35.90
2018-09-06T12:05:07.728Z,36.00
2018-09-06T12:07:35.242Z,36.00
2018-09-06T12:10:02.750Z,36.00
2018-09-06T12:12:30.221Z,36.10
2018-09-06T12:14:57.728Z,36.20
2018-09-06T12:17:25.205Z,36.20
2018-09-06T12:19:52.688Z,36.30
2018-09-06T12:22:20.093Z,36.40
2018-09-06T12:24:47.658Z,36.60
2018-09-06T12:27:15.069Z,36.70
2018-09-06T12:29:42.467Z,37.00
2018-09-06T12:32:09.974Z,37.20
2018-09-06T12:34:37.424Z,37.40
2018-09-06T12:37:09.461Z,37.60
2018-09-06T12:39:36.993Z,37.80
2018-09-06T12:42:04.482Z,38.00
2018-09-06T12:44:31.958Z,38.30
2018-09-06T12:46:59.465Z,38.60
2018-09-06T12:49:26.933Z,39.00
2018-09-06T12:51:54.374Z,39.40
2018-09-06T12:54:21.954Z,39.70
2018-09-06T12:56:49.424Z,39.90
2018-09-06T12:59:16.880Z,40.10
2018-09-06T13:01:44.321Z,40.30
2018-09-06T13:04:11.741Z,40.50
2018-09-06T13:06:39.211Z,40.70
2018-09-06T13:09:07.202Z,40.90
2018-09-06T13:11:34.859Z,41.00
2018-09-06T13:14:02.374Z,40.90
2018-09-06T13:16:29.768Z,41.10
2018-09-06T13:18:57.222Z,41.20
2018-09-06T13:21:24.673Z,41.30
2018-09-06T13:23:52.140Z,41.40
2018-09-06T13:26:19.600Z,41.60
2018-09-06T13:28:47.116Z,41.90
2018-09-06T13:31:14.687Z,42.00
2018-09-06T13:33:42.094Z,42.10
2018-09-06T13:36:09.526Z,42.10
2018-09-06T13:38:36.940Z,42.00
2018-09-06T13:41:04.396Z,41.90
2018-09-06T13:43:31.842Z,41.80
2018-09-06T13:46:03.923Z,41.70
2018-09-06T13:48:31.336Z,41.70
2018-09-06T13:50:58.733Z,41.70
2018-09-06T13:53:26.129Z,41.50
2018-09-06T13:55:53.602Z,41.30
2018-09-06T13:58:21.076Z,41.00
2018-09-06T14:00:48.541Z,40.80
2018-09-06T14:03:15.954Z,40.70
2018-09-06T14:05:43.423Z,40.60
2018-09-06T14:08:10.829Z,40.60
2018-09-06T14:10:42.448Z,40.60
2018-09-06T14:13:10.633Z,40.70
2018-09-06T14:15:39.456Z,40.80
2018-09-06T14:18:07.021Z,40.70
2018-09-06T14:20:34.487Z,40.90
2018-09-06T14:23:01.891Z,40.90
2018-09-06T14:25:32.006Z,40.90
2018-09-06T14:27:59.450Z,41.00
2018-09-06T14:30:26.941Z,40.90
2018-09-06T14:32:54.659Z,41.20
2018-09-06T14:35:22.435Z,41.30
2018-09-06T14:37:50.226Z,41.40
2018-09-06T14:40:17.665Z,41.50
2018-09-06T14:42:45.098Z,41.50
2018-09-06T14:45:12.995Z,41.70
2018-09-06T14:47:40.409Z,41.60
2018-09-06T14:50:07.854Z,41.50
2018-09-06T14:52:35.304Z,41.50
2018-09-06T14:55:02.715Z,41.40
2018-09-06T14:57:30.136Z,41.50
2018-09-06T14:59:57.583Z,41.40
2018-09-06T15:02:25.499Z,41.40
2018-09-06T15:04:56.947Z,41.30
2018-09-06T15:07:24.365Z,41.40
2018-09-06T15:09:51.790Z,41.30
2018-09-06T15:12:31.827Z,41.20
2018-09-06T15:14:59.289Z,41.10
2018-09-06T15:17:27.132Z,41.00
2018-09-06T15:19:54.608Z,40.90
2018-09-06T15:22:22.069Z,40.80
2018-09-06T15:24:49.515Z,40.70
2018-09-06T15:27:16.977Z,40.70
2018-09-06T15:29:44.400Z,40.50
2018-09-06T15:32:11.978Z,40.60
2018-09-06T15:34:39.486Z,38.90
2018-09-06T15:37:06.935Z,40.30
2018-09-06T15:39:37.655Z,40.20
2018-09-06T15:42:05.187Z,40.00
2018-09-06T15:44:32.628Z,39.90
2018-09-06T15:47:00.248Z,39.80
2018-09-06T15:49:27.942Z,39.60
2018-09-06T15:51:55.424Z,39.50
2018-09-06T15:54:22.809Z,39.30
2018-09-06T15:56:50.238Z,39.20
2018-09-06T15:59:17.671Z,38.90
2018-09-06T16:01:45.127Z,38.70
2018-09-06T16:04:12.565Z,38.60
2018-09-06T16:06:40.088Z,38.40
2018-09-06T16:09:07.582Z,38.20
2018-09-06T16:11:35.264Z,37.90
2018-09-06T16:14:02.708Z,37.50
2018-09-06T16:16:30.496Z,37.10
2018-09-06T16:18:57.964Z,36.50
2018-09-06T16:21:25.386Z,36.30
2018-09-06T16:23:52.782Z,35.90
2018-09-06T16:26:20.170Z,35.50
2018-09-06T16:28:47.610Z,35.10
2018-09-06T16:31:15.053Z,34.70
2018-09-06T16:33:42.484Z,34.10
2018-09-06T16:36:09.882Z,34.00
2018-09-06T16:38:37.380Z,33.70
2018-09-06T16:41:04.914Z,33.40
2018-09-06T16:43:32.394Z,33.10
2018-09-06T16:46:01.073Z,31.00
2018-09-06T16:48:28.841Z,32.60
2018-09-06T16:50:56.388Z,32.30
2018-09-06T16:53:24.550Z,32.10
2018-09-06T16:55:52.097Z,31.90
2018-09-06T16:58:19.534Z,31.70
2018-09-06T17:00:48.278Z,31.50
2018-09-06T17:03:15.704Z,31.30
2018-09-06T17:05:43.173Z,31.10
2018-09-06T17:08:10.618Z,31.00
2018-09-06T17:10:38.196Z,30.80
2018-09-06T17:13:06.433Z,30.70
2018-09-06T17:15:44.828Z,28.80
2018-09-06T17:18:12.399Z,28.70
2018-09-06T17:20:39.939Z,30.30
2018-09-06T17:23:07.433Z,30.10
2018-09-06T17:28:07.513Z,29.80
2018-09-06T17:30:35.052Z,29.70
2018-09-06T17:33:07.353Z,28.10
2018-09-06T17:35:34.823Z,30.60
2018-09-06T17:38:02.325Z,29.40
2018-09-06T17:40:29.848Z,29.30
2018-09-06T17:42:57.361Z,29.20
2018-09-06T17:45:24.892Z,29.10
2018-09-06T17:47:52.344Z,29.00
2018-09-06T17:50:20.804Z,28.80
2018-09-06T17:52:48.295Z,26.50
2018-09-06T17:55:15.842Z,28.80
2018-09-06T17:57:43.278Z,28.70
2018-09-06T18:00:10.760Z,28.60
2018-09-06T18:02:38.316Z,28.50
2018-09-06T18:05:06.492Z,28.00
2018-09-06T18:07:33.938Z,28.40
2018-09-06T18:10:01.427Z,28.30
2018-09-06T18:12:28.888Z,28.30
2018-09-06T18:14:56.446Z,28.20
2018-09-06T18:17:24.033Z,28.20
2018-09-06T18:19:51.560Z,28.10
2018-09-06T18:22:19.020Z,28.00
2018-09-06T18:24:46.600Z,28.00
2018-09-06T18:27:14.302Z,27.90
2018-09-06T18:29:41.926Z,27.90
2018-09-06T18:32:09.524Z,27.80
2018-09-06T18:34:37.004Z,27.80
2018-09-06T18:37:04.452Z,27.80
2018-09-06T18:39:31.873Z,27.60
2018-09-06T18:42:00.247Z,27.70
2018-09-06T18:44:27.665Z,27.60
2018-09-06T18:46:55.129Z,27.60
2018-09-06T18:49:22.682Z,27.50
2018-09-06T18:51:50.144Z,29.70
2018-09-06T18:54:17.753Z,27.40
2018-09-06T18:56:45.303Z,27.40
2018-09-06T18:59:12.731Z,27.20
2018-09-06T19:01:40.281Z,27.30
2018-09-06T19:04:07.720Z,27.30
2018-09-06T19:06:35.205Z,27.20
2018-09-06T19:09:06.016Z,27.20
2018-09-06T19:11:33.447Z,27.10
2018-09-06T19:14:00.909Z,27.10
2018-09-06T19:16:28.403Z,27.00
2018-09-06T19:18:56.067Z,27.00
2018-09-06T19:21:24.201Z,26.90
2018-09-06T19:23:52.291Z,26.90
2018-09-06T19:26:19.827Z,26.80
2018-09-06T19:28:47.277Z,26.70
2018-09-06T19:31:14.845Z,26.60
2018-09-06T19:33:42.290Z,26.50
2018-09-06T19:36:09.735Z,26.40
2018-09-06T19:38:37.198Z,26.30
2018-09-06T19:41:04.712Z,26.20
2018-09-06T19:43:32.192Z,26.10
2018-09-06T19:45:59.713Z,26.00
2018-09-06T19:48:27.203Z,25.90
2018-09-06T19:50:54.601Z,25.80
2018-09-06T19:53:22.061Z,25.70
2018-09-06T19:55:49.518Z,25.60
2018-09-06T19:58:17.045Z,25.50
2018-09-06T20:00:44.505Z,25.40
2018-09-06T20:03:12.036Z,25.40
2018-09-06T20:05:39.479Z,25.40
2018-09-06T20:08:09.205Z,25.30
2018-09-06T20:10:36.890Z,25.30
2018-09-06T20:13:05.124Z,25.10
2018-09-06T20:15:32.735Z,25.20
2018-09-06T20:18:00.153Z,25.10
2018-09-06T20:20:28.005Z,25.00
2018-09-06T20:22:55.430Z,25.00
2018-09-06T20:25:22.893Z,24.90
2018-09-06T20:27:50.374Z,24.90
2018-09-06T20:30:17.867Z,24.90
2018-09-06T20:32:45.281Z,24.80
2018-09-06T20:35:12.763Z,24.80
2018-09-06T20:37:40.311Z,24.80
2018-09-06T20:40:07.794Z,24.70
2018-09-06T20:42:35.611Z,24.60
2018-09-06T20:45:03.183Z,24.50
2018-09-06T20:47:30.673Z,24.40
2018-09-06T20:49:58.124Z,24.30
2018-09-06T20:52:26.477Z,24.30
2018-09-06T20:54:53.884Z,24.20
2018-09-06T20:57:21.379Z,24.10
2018-09-06T20:59:48.881Z,24.00
2018-09-06T21:02:22.304Z,23.90
2018-09-06T21:04:50.299Z,23.40
2018-09-06T21:07:17.842Z,23.70
2018-09-06T21:09:45.290Z,23.60
2018-09-06T21:12:12.918Z,23.60
2018-09-06T21:14:40.542Z,23.50
2018-09-06T21:17:18.388Z,23.30
2018-09-06T21:19:45.832Z,23.40
2018-09-06T21:22:13.265Z,23.30
2018-09-06T21:24:40.673Z,23.30
2018-09-06T21:27:08.130Z,23.20
2018-09-06T21:29:35.563Z,23.10
2018-09-06T21:32:03.410Z,23.00
2018-09-06T21:34:30.840Z,23.10
2018-09-06T21:36:58.292Z,23.00
2018-09-06T21:39:25.722Z,23.00
2018-09-06T21:41:53.183Z,23.00
2018-09-06T21:44:20.654Z,23.00
2018-09-06T21:46:48.116Z,23.00
2018-09-06T21:49:15.586Z,22.90
2018-09-06T21:51:43.092Z,23.00
2018-09-06T21:54:10.599Z,22.90
2018-09-06T21:56:38.041Z,22.90
2018-09-06T21:59:05.477Z,22.90
2018-09-06T22:01:32.966Z,22.90
2018-09-06T22:04:05.319Z,22.80
2018-09-06T22:06:33.266Z,22.80
2018-09-06T22:09:00.738Z,22.80
2018-09-06T22:11:28.162Z,22.80
2018-09-06T22:13:55.950Z,22.80
2018-09-06T22:16:23.451Z,22.80
2018-09-06T22:18:51.013Z,22.70
2018-09-06T22:21:18.515Z,22.70
2018-09-06T22:23:45.977Z,22.70
2018-09-06T22:26:13.504Z,22.70
2018-09-06T22:28:41.024Z,22.70
2018-09-06T22:31:08.473Z,22.70
2018-09-06T22:33:36.309Z,22.70
2018-09-06T22:36:04.138Z,22.70
2018-09-06T22:38:32.072Z,21.60
2018-09-06T22:40:59.534Z,22.70
2018-09-06T22:43:27.104Z,22.70
2018-09-06T22:45:54.585Z,22.70
2018-09-06T22:48:22.001Z,22.70
2018-09-06T22:50:49.395Z,22.70
2018-09-06T22:53:16.815Z,22.70
2018-09-06T22:55:44.285Z,22.60
2018-09-06T22:58:11.725Z,22.60
2018-09-06T23:00:39.277Z,22.60
2018-09-06T23:03:12.490Z,22.60
2018-09-06T23:05:40.157Z,22.60
2018-09-06T23:08:07.853Z,22.60
2018-09-06T23:10:35.324Z,22.50
2018-09-06T23:13:02.819Z,22.50
2018-09-06T23:15:30.239Z,22.50
2018-09-06T23:17:57.737Z,22.40
2018-09-06T23:20:25.138Z,22.40
2018-09-06T23:22:52.615Z,22.30
2018-09-06T23:25:20.017Z,22.30
2018-09-06T23:27:47.453Z,22.30
2018-09-06T23:30:14.871Z,22.20
2018-09-06T23:32:42.325Z,22.20
2018-09-06T23:35:09.738Z,22.20
2018-09-06T23:37:37.160Z,22.10
2018-09-06T23:40:04.658Z,22.10
2018-09-06T23:42:32.109Z,22.10
2018-09-06T23:44:59.585Z,22.00
2018-09-06T23:47:27.014Z,22.00
2018-09-06T23:49:54.542Z,22.00
2018-09-06T23:52:21.970Z,21.90
2018-09-06T23:54:49.740Z,21.90
2018-09-06T23:57:17.143Z,21.90
2018-09-06T23:59:44.598Z,21.80
